Time;durP1;ratioP1;P1;durP2;ratioP2;P2;SDS_P1;SDS_P2;PMS_P1;PMS_P2;Temp;Humidity;BMP_temperature;BMP_pressure;BME280_temperature;BME280_humidity;BME280_pressure;Samples;Min_cycle;Max_cycle;Signal;HPM_P1;HPM_P2
2022/12/06 00:04:08;;;;;;;4.45;3.72;;;;;;;11.37;83.80;100027.28;10341259;28;97685;-83
2022/12/06 00:09:19;;;;;;;4.18;3.60;;;;;;;11.38;83.27;100028.16;10383429;28;96670;-83
2022/12/06 00:14:24;;;;;;;4.10;3.00;;;;;;;11.38;83.12;100015.84;10382748;28;96851;-83
2022/12/06 00:19:28;;;;;;;8.20;4.18;;;;;;;11.37;83.69;100019.38;10382726;28;96811;-83
2022/12/06 00:24:39;;;;;;;5.60;3.80;;;;;;;11.37;83.56;100022.00;10382089;28;96869;-83
2022/12/06 00:29:42;;;;;;;4.05;3.47;;;;;;;11.38;83.53;100021.09;10382480;28;96624;-83
2022/12/06 00:34:48;;;;;;;4.80;3.30;;;;;;;11.35;83.95;100030.94;10382525;28;96762;-82
2022/12/06 00:39:54;;;;;;;3.67;3.25;;;;;;;11.42;83.66;100027.09;10382181;28;96675;-83
2022/12/06 00:45:01;;;;;;;3.80;3.20;;;;;;;11.46;83.27;100033.91;10382113;28;96710;-83
2022/12/06 00:50:07;;;;;;;3.58;3.05;;;;;;;11.51;82.90;100036.34;10382052;28;96792;-83
2022/12/06 00:55:17;;;;;;;3.40;3.08;;;;;;;11.52;82.83;100040.66;10380367;28;96648;-83
2022/12/06 01:00:22;;;;;;;5.30;3.25;;;;;;;11.53;82.75;100048.50;10339640;28;96921;-83
2022/12/06 01:05:32;;;;;;;4.40;2.78;;;;;;;11.59;82.91;100048.22;10340042;28;96702;-84
2022/12/06 01:10:40;;;;;;;3.35;2.70;;;;;;;11.61;82.54;100056.94;10339938;28;96770;-83
2022/12/06 01:15:45;;;;;;;3.42;2.67;;;;;;;11.57;82.24;100044.81;10338984;28;96780;-83
2022/12/06 01:20:52;;;;;;;3.78;2.78;;;;;;;11.58;82.46;100053.56;10339694;28;97022;-84
2022/12/06 01:26:00;;;;;;;3.53;2.70;;;;;;;11.56;83.22;100064.19;10339579;28;96632;-84
2022/12/06 01:31:08;;;;;;;3.75;3.00;;;;;;;11.56;82.62;100065.97;10339899;28;96662;-83
2022/12/06 01:36:17;;;;;;;2.70;2.30;;;;;;;11.59;82.38;100069.31;10339207;28;96767;-84
2022/12/06 01:41:28;;;;;;;4.80;3.22;;;;;;;11.61;82.78;100079.78;10339006;28;96852;-84
2022/12/06 01:46:42;;;;;;;4.15;2.83;;;;;;;11.63;81.68;100070.84;10338324;28;96763;-84
2022/12/06 01:51:52;;;;;;;3.53;2.80;;;;;;;11.65;81.96;100081.34;10338692;28;96612;-83
2022/12/06 01:57:02;;;;;;;4.18;3.00;;;;;;;11.68;82.02;100089.13;10338625;28;97099;-84
2022/12/06 02:02:07;;;;;;;4.05;3.00;;;;;;;11.67;82.13;100082.13;10338518;28;96592;-84
2022/12/06 02:07:15;;;;;;;5.03;2.80;;;;;;;11.73;81.91;100082.72;10338479;28;96652;-83
2022/12/06 02:12:23;;;;;;;3.58;2.75;;;;;;;11.71;82.11;100084.56;10337950;28;96742;-83
2022/12/06 02:17:42;;;;;;;4.38;2.88;;;;;;;11.64;81.93;100087.53;10337558;28;96825;-84
2022/12/06 02:23:13;;;;;;;4.50;3.58;;;;;;;11.58;82.72;100106.28;10361265;28;98557;-83
2022/12/06 02:33:51;;;;;;;3.97;3.28;;;;;;;11.64;81.94;100106.84;10418139;28;96847;-84
2022/12/06 02:39:05;;;;;;;4.00;3.10;;;;;;;11.65;81.87;100115.63;10401609;27;96669;-84
2022/12/06 02:44:22;;;;;;;4.50;3.17;;;;;;;11.67;82.37;100122.50;10374883;28;96815;-84
2022/12/06 02:49:34;;;;;;;3.95;3.15;;;;;;;11.66;81.97;100133.13;10374039;28;96673;-84
2022/12/06 02:54:41;;;;;;;3.50;2.80;;;;;;;11.63;81.83;100128.00;10374485;28;97036;-84
2022/12/06 02:59:53;;;;;;;3.85;2.97;;;;;;;11.67;82.32;100124.28;10373623;28;97092;-84
2022/12/06 03:05:14;;;;;;;3.40;2.55;;;;;;;11.60;81.76;100133.44;10373962;28;96996;-84
2022/12/06 03:10:34;;;;;;;6.22;2.95;;;;;;;11.53;82.23;100132.81;10373617;28;96712;-83
2022/12/06 03:15:53;;;;;;;3.72;2.63;;;;;;;11.58;82.37;100136.09;10374273;28;96637;-84
2022/12/06 03:21:09;;;;;;;4.80;3.08;;;;;;;11.46;82.64;100143.72;10373406;28;97110;-84
2022/12/06 03:26:20;;;;;;;5.95;3.10;;;;;;;11.56;82.43;100147.66;10372900;28;96855;-84
2022/12/06 03:31:28;;;;;;;3.15;2.30;;;;;;;11.64;81.87;100145.53;10372934;28;97461;-84
2022/12/06 03:36:39;;;;;;;3.05;2.75;;;;;;;11.66;81.92;100141.91;10372782;28;96706;-84
2022/12/06 03:41:48;;;;;;;4.03;3.05;;;;;;;11.67;82.88;100142.72;10363427;28;96666;-84
2022/12/06 03:47:00;;;;;;;4.53;3.30;;;;;;;11.68;82.80;100147.09;10345802;28;96714;-84
2022/12/06 03:52:13;;;;;;;3.75;2.63;;;;;;;11.69;82.18;100143.53;10344849;28;96905;-84
2022/12/06 03:57:18;;;;;;;3.60;3.00;;;;;;;11.68;82.49;100144.47;10345096;28;96662;-84
2022/12/06 04:02:26;;;;;;;3.78;3.20;;;;;;;11.74;82.24;100146.81;10344688;28;96746;-84
2022/12/06 04:07:35;;;;;;;3.70;3.10;;;;;;;11.75;82.24;100156.44;10344634;28;96796;-84
2022/12/06 04:18:12;;;;;;;4.43;3.20;;;;;;;11.61;83.07;100161.47;10343786;28;96756;-84
2022/12/06 04:23:24;;;;;;;3.70;3.20;;;;;;;11.60;83.41;100162.41;10343901;28;96622;-84
2022/12/06 04:39:18;;;;;;;3.20;2.60;;;;;;;11.56;83.07;100166.97;10343859;28;96718;-84
2022/12/06 04:44:27;;;;;;;3.53;2.78;;;;;;;11.68;82.63;100168.19;10342864;28;96736;-84
2022/12/06 04:49:45;;;;;;;4.53;3.70;;;;;;;11.67;82.20;100167.31;10342981;28;96715;-84
2022/12/06 04:54:54;;;;;;;3.95;3.53;;;;;;;11.64;82.51;100161.31;10342101;28;97342;-84
2022/12/06 04:59:59;;;;;;;4.70;3.67;;;;;;;11.69;82.08;100172.53;10342254;28;96643;-84
2022/12/06 05:05:10;;;;;;;3.85;3.15;;;;;;;11.78;82.48;100178.25;10342861;28;96697;-84
2022/12/06 05:10:21;;;;;;;4.30;3.35;;;;;;;11.74;82.81;100183.72;10342860;28;96687;-84
2022/12/06 05:15:25;;;;;;;4.55;3.50;;;;;;;11.76;82.10;100184.50;10341365;28;96753;-84
2022/12/06 05:20:31;;;;;;;3.88;3.25;;;;;;;11.78;82.19;100180.00;10343326;28;96833;-84
2022/12/06 05:25:39;;;;;;;3.97;3.40;;;;;;;11.78;82.53;100185.28;10341727;28;97042;-84
2022/12/06 05:30:43;;;;;;;4.47;3.03;;;;;;;11.82;81.92;100187.69;10341866;28;96708;-84
2022/12/06 05:35:52;;;;;;;4.05;3.53;;;;;;;11.84;81.60;100187.66;10341204;28;96517;-84
2022/12/06 05:41:03;;;;;;;4.53;3.50;;;;;;;11.86;81.74;100199.81;10341219;28;96589;-84
2022/12/06 05:46:09;;;;;;;3.88;3.42;;;;;;;11.86;81.62;100199.81;10341924;28;96635;-84
2022/12/06 05:51:14;;;;;;;4.35;3.50;;;;;;;11.86;82.09;100204.25;10340747;28;96668;-84
2022/12/06 05:56:21;;;;;;;;;;;;;;;11.82;82.40;100205.31;10341163;28;97363;-84
2022/12/06 06:01:27;;;;;;;5.70;3.60;;;;;;;11.79;81.95;100205.44;10340982;28;96807;-84
2022/12/06 06:06:35;;;;;;;5.50;4.18;;;;;;;11.78;82.09;100220.44;10340292;28;96723;-84
2022/12/06 06:11:42;;;;;;;;;;;;;;;11.76;82.96;100219.63;10340732;28;96806;-84
2022/12/06 06:16:49;;;;;;;5.25;4.00;;;;;;;11.76;81.97;100226.66;10340473;28;96713;-84
2022/12/06 06:21:52;;;;;;;5.73;4.67;;;;;;;11.76;82.19;100227.53;10340539;28;96807;-84
2022/12/06 06:27:02;;;;;;;5.47;4.10;;;;;;;11.79;82.50;100231.81;10340180;28;96727;-84
2022/12/06 06:32:12;;;;;;;4.68;4.15;;;;;;;11.82;82.15;100231.69;10339161;28;96718;-84
2022/12/06 06:37:19;;;;;;;5.35;3.78;;;;;;;11.81;82.06;100237.88;10340282;28;96734;-84
2022/12/06 06:42:32;;;;;;;5.07;4.43;;;;;;;11.80;82.45;100238.81;10339361;28;96697;-84
2022/12/06 06:47:36;;;;;;;6.68;4.85;;;;;;;11.80;82.67;100241.44;10339296;28;96821;-84
2022/12/06 06:52:42;;;;;;;6.35;4.72;;;;;;;11.81;81.81;100237.88;10339553;28;97598;-84
2022/12/06 06:57:52;;;;;;;5.60;4.25;;;;;;;11.79;82.09;100240.56;10339399;28;96694;-84
2022/12/06 07:02:56;;;;;;;7.15;3.88;;;;;;;11.80;82.74;100249.34;10338777;28;96783;-83
2022/12/06 07:08:03;;;;;;;4.90;4.27;;;;;;;11.83;82.70;100246.56;10338796;28;96796;-84
2022/12/06 07:13:10;;;;;;;5.50;4.13;;;;;;;11.79;82.25;100245.84;10339475;28;96677;-84
2022/12/06 07:18:14;;;;;;;5.22;4.22;;;;;;;11.79;82.74;100260.81;10342426;28;97003;-84
2022/12/06 07:23:19;;;;;;;6.68;4.90;;;;;;;11.83;82.10;100267.66;10345661;28;96771;-84
2022/12/06 07:28:27;;;;;;;5.17;4.67;;;;;;;11.83;81.89;100276.44;10346135;28;96580;-84
2022/12/06 07:33:35;;;;;;;6.75;5.28;;;;;;;11.80;82.41;100265.16;10344769;28;96913;-84
2022/12/06 07:38:43;;;;;;;5.78;5.15;;;;;;;11.80;82.09;100279.22;10344972;28;97008;-84
2022/12/06 07:49:12;;;;;;;6.35;5.20;;;;;;;11.86;81.97;100284.19;10314980;28;96902;-84
2022/12/06 07:54:17;;;;;;;5.85;5.20;;;;;;;11.84;81.94;100283.41;10344241;28;97127;-83
2022/12/06 07:59:24;;;;;;;;;;;;;;;11.82;82.44;100284.41;10344809;28;96500;-83
2022/12/06 08:04:28;;;;;;;5.15;4.40;;;;;;;11.89;82.42;100296.41;10345727;28;96901;-84
2022/12/06 08:09:35;;;;;;;7.15;5.05;;;;;;;11.99;81.35;100295.06;10344677;28;96800;-84
2022/12/06 08:14:43;;;;;;;7.30;5.60;;;;;;;12.04;82.27;100299.22;10344378;28;96485;-84
2022/12/06 08:19:52;;;;;;;6.93;5.35;;;;;;;12.03;81.64;100312.47;10344351;28;96673;-84
2022/12/06 08:24:56;;;;;;;6.10;4.40;;;;;;;12.08;81.66;100313.97;10379418;28;96735;-84
2022/12/06 08:30:13;;;;;;;5.88;4.63;;;;;;;12.21;80.87;100316.91;10384273;28;96615;-84
2022/12/06 08:35:19;;;;;;;5.88;4.47;;;;;;;12.35;81.09;100325.06;10374896;28;96827;-84
2022/12/06 08:40:27;;;;;;;7.32;4.55;;;;;;;12.34;81.16;100332.09;10343019;28;96666;-84
2022/12/06 08:45:36;;;;;;;6.38;5.07;;;;;;;12.30;81.30;100338.47;10343640;28;96586;-83
2022/12/06 08:50:41;;;;;;;8.80;5.30;;;;;;;12.21;81.69;100345.94;10342602;28;96675;-83
2022/12/06 08:55:54;;;;;;;5.75;5.03;;;;;;;12.18;81.21;100351.34;10343061;28;96809;-84
2022/12/06 09:01:18;;;;;;;5.88;4.93;;;;;;;12.17;81.27;100362.81;10342366;28;98018;-84
2022/12/06 09:06:23;;;;;;;6.75;5.38;;;;;;;12.29;81.37;100364.91;10342398;28;96602;-84
2022/12/06 09:11:35;;;;;;;7.97;5.30;;;;;;;12.25;81.06;100376.53;10343323;28;96764;-84
2022/12/06 09:16:42;;;;;;;6.57;5.03;;;;;;;12.27;81.10;100391.34;10341997;28;96644;-84
2022/12/06 09:21:50;;;;;;;6.78;5.38;;;;;;;12.31;81.29;100392.94;10341925;28;96735;-84
2022/12/06 09:26:55;;;;;;;5.80;4.70;;;;;;;12.39;81.18;100409.28;10342601;28;96612;-84
2022/12/06 09:32:03;;;;;;;5.63;4.22;;;;;;;12.45;80.11;100416.94;10340420;28;96779;-84
2022/12/06 09:37:16;;;;;;;4.95;4.35;;;;;;;12.43;80.45;100421.44;10341776;28;96800;-84
2022/12/06 09:42:58;;;;;;;5.50;4.28;;;;;;;12.57;79.87;100426.09;10341127;28;96783;-84
2022/12/06 09:48:28;;;;;;;6.20;4.25;;;;;;;12.73;79.41;100428.91;10341084;28;96883;-84
2022/12/06 09:53:48;;;;;;;5.78;4.22;;;;;;;12.93;79.43;100442.91;10340627;28;96739;-84
2022/12/06 09:59:07;;;;;;;6.40;4.38;;;;;;;12.98;79.15;100438.28;10340694;28;96841;-84
2022/12/06 10:04:38;;;;;;;6.65;4.70;;;;;;;12.94;78.52;100438.50;10340776;28;96804;-84
2022/12/06 10:09:54;;;;;;;6.25;4.50;;;;;;;13.08;78.71;100438.72;10340484;28;96558;-84
2022/12/06 10:15:16;;;;;;;6.70;4.88;;;;;;;12.98;78.70;100446.22;10340128;28;96737;-84
2022/12/06 10:20:35;;;;;;;8.88;5.35;;;;;;;12.90;79.14;100455.41;10340050;28;96735;-84
2022/12/06 10:25:46;;;;;;;5.60;5.00;;;;;;;12.93;79.17;100463.22;10340040;28;96867;-83
2022/12/06 10:30:54;;;;;;;6.38;5.13;;;;;;;12.87;78.94;100464.34;10339878;28;96871;-83
2022/12/06 10:36:05;;;;;;;6.68;4.60;;;;;;;12.96;78.62;100471.88;10339531;28;97136;-84
2022/12/06 10:41:15;;;;;;;7.10;4.80;;;;;;;13.07;78.42;100479.28;10339916;28;97007;-84
2022/12/06 10:52:04;;;;;;;5.57;4.53;;;;;;;13.23;78.29;100480.28;10341413;28;96609;-84
2022/12/06 10:57:16;;;;;;;5.85;3.88;;;;;;;13.28;78.12;100472.97;10346915;28;96645;-84
2022/12/06 11:02:29;;;;;;;3.92;3.45;;;;;;;13.39;78.09;100470.69;10346654;28;96674;-84
2022/12/06 11:07:43;;;;;;;4.72;3.92;;;;;;;13.49;77.93;100462.25;10346309;28;96631;-84
2022/12/06 11:12:49;;;;;;;6.15;5.38;;;;;;;13.62;77.24;100446.66;10344809;28;96933;-84
2022/12/06 11:18:03;;;;;;;8.82;6.28;;;;;;;13.74;76.67;100445.19;10344637;28;96747;-84
2022/12/06 11:23:18;;;;;;;;;;;;;;;13.83;76.02;100431.53;10361619;28;96711;-85
2022/12/06 11:28:36;;;;;;;7.47;5.40;;;;;;;14.17;75.99;100431.56;10350050;28;97008;-84
2022/12/06 11:33:40;;;;;;;7.05;5.05;;;;;;;14.29;75.28;100423.84;10342012;28;96609;-84
2022/12/06 11:38:51;;;;;;;7.20;5.63;;;;;;;14.34;74.91;100421.81;10343314;28;96672;-84
2022/12/06 11:44:00;;;;;;;6.22;4.50;;;;;;;14.32;75.09;100420.16;10344045;28;96721;-83
2022/12/06 11:49:17;;;;;;;7.22;4.50;;;;;;;14.50;74.42;100416.56;10343408;28;96827;-84
2022/12/06 11:54:28;;;;;;;6.35;5.03;;;;;;;14.62;74.46;100411.47;10342909;28;96690;-84
2022/12/06 11:59:34;;;;;;;6.55;4.13;;;;;;;14.62;74.37;100400.03;10343375;28;97520;-84
2022/12/06 12:04:39;;;;;;;4.87;4.23;;;;;;;14.49;74.52;100405.09;10342169;28;97060;-83
2022/12/06 12:09:55;;;;;;;5.40;4.07;;;;;;;14.27;74.80;100396.59;10343273;28;96965;-84
2022/12/06 12:14:59;;;;;;;5.57;4.10;;;;;;;14.56;74.26;100390.59;10342362;28;96657;-84
2022/12/06 12:20:08;;;;;;;4.30;3.63;;;;;;;14.39;74.31;100393.31;10382873;28;97581;-84
2022/12/06 12:25:28;;;;;;;4.63;3.70;;;;;;;14.44;74.70;100382.44;10382713;28;96647;-84
2022/12/06 12:30:38;;;;;;;5.65;3.40;;;;;;;14.48;74.26;100376.06;10382863;28;97056;-85
2022/12/06 12:35:47;;;;;;;3.78;3.30;;;;;;;14.56;74.25;100371.19;10382010;28;96722;-84
2022/12/06 12:41:00;;;;;;;3.83;3.03;;;;;;;14.61;74.29;100370.03;10382917;28;97261;-84
2022/12/06 12:46:13;;;;;;;5.05;3.00;;;;;;;14.49;74.30;100357.44;10382506;28;97148;-84
2022/12/06 12:51:24;;;;;;;3.60;3.28;;;;;;;14.62;74.33;100358.50;10341671;28;96825;-84
2022/12/06 12:56:36;;;;;;;4.07;2.90;;;;;;;14.74;74.37;100351.69;10340800;28;97051;-84
2022/12/06 13:01:46;;;;;;;2.78;2.42;;;;;;;14.65;74.48;100353.03;10341522;28;96812;-84
2022/12/06 13:06:55;;;;;;;3.13;2.72;;;;;;;14.66;74.47;100338.00;10341136;28;96803;-84
2022/12/06 13:12:05;;;;;;;3.08;2.75;;;;;;;14.69;74.19;100343.13;10340803;28;97059;-84
2022/12/06 13:17:14;;;;;;;3.50;2.83;;;;;;;14.86;74.12;100340.41;10338161;28;97882;-84
2022/12/06 13:22:22;;;;;;;6.00;2.63;;;;;;;14.71;73.94;100343.91;10340165;28;96877;-84
2022/12/06 13:27:37;;;;;;;3.38;2.50;;;;;;;14.59;74.17;100341.94;10339973;28;96614;-84
2022/12/06 13:32:45;;;;;;;3.00;2.70;;;;;;;14.65;73.66;100333.63;10339663;28;97072;-84
2022/12/06 13:37:54;;;;;;;3.10;2.42;;;;;;;14.65;73.75;100336.28;10339662;28;97175;-83
2022/12/06 13:43:06;;;;;;;3.78;2.80;;;;;;;14.56;74.31;100334.13;10339223;28;96679;-84
2022/12/06 13:48:36;;;;;;;3.58;3.10;;;;;;;14.49;74.37;100330.97;10338821;28;96822;-84
2022/12/06 13:54:18;;;;;;;4.18;3.30;;;;;;;14.51;74.59;100329.09;10340275;28;96857;-84
2022/12/06 13:59:44;;;;;;;3.92;3.40;;;;;;;14.52;75.05;100325.50;10338698;28;96839;-84
2022/12/06 14:04:51;;;;;;;5.45;3.97;;;;;;;14.50;74.70;100326.53;10338839;28;96703;-84
2022/12/06 14:09:55;;;;;;;4.55;3.50;;;;;;;14.56;74.73;100321.75;10337548;28;97039;-84
2022/12/06 14:15:03;;;;;;;4.63;3.77;;;;;;;14.47;75.19;100329.34;10338339;28;97053;-83
2022/12/06 14:20:20;;;;;;;5.50;4.18;;;;;;;14.50;75.04;100326.53;10338390;28;96775;-84
2022/12/06 14:25:27;;;;;;;4.70;3.92;;;;;;;14.54;75.17;100318.31;10370017;28;96799;-84
2022/12/06 14:30:35;;;;;;;3.75;3.35;;;;;;;14.45;75.33;100308.22;10379292;28;96895;-84
2022/12/06 14:35:49;;;;;;;4.20;3.10;;;;;;;14.34;75.63;100313.28;10341743;28;96757;-84
2022/12/06 14:46:21;;;;;;;4.53;3.15;;;;;;;14.34;75.96;100309.75;10338365;28;96719;-84
2022/12/06 14:51:27;;;;;;;4.47;3.70;;;;;;;14.32;75.93;100319.56;10338519;28;96979;-84
2022/12/06 14:56:33;;;;;;;4.95;3.28;;;;;;;14.37;75.87;100313.09;10337220;28;96850;-84
2022/12/06 15:01:53;;;;;;;4.63;3.58;;;;;;;14.34;76.19;100315.06;10336427;28;96574;-84
2022/12/06 15:06:59;;;;;;;5.72;3.88;;;;;;;14.41;75.99;100313.78;10337783;28;96732;-84
2022/12/06 15:17:44;;;;;;;5.78;3.83;;;;;;;14.33;76.39;100316.00;10336725;28;96673;-84
2022/12/06 15:22:48;;;;;;;4.38;3.47;;;;;;;14.37;75.81;100323.69;10337381;28;96697;-84
2022/12/06 15:27:52;;;;;;;5.30;3.70;;;;;;;14.39;75.96;100315.66;10336763;28;96841;-84
2022/12/06 15:32:58;;;;;;;5.43;4.43;;;;;;;14.39;76.47;100326.25;10335984;28;96981;-84
2022/12/06 15:38:04;;;;;;;7.07;4.25;;;;;;;14.39;76.66;100328.91;10339361;28;96745;-84
2022/12/06 15:43:23;;;;;;;5.47;4.63;;;;;;;14.24;77.18;100333.25;10343863;28;96837;-84
2022/12/06 15:48:33;;;;;;;10.77;6.90;;;;;;;14.26;76.84;100335.81;10343347;28;96695;-84
2022/12/06 15:53:39;;;;;;;9.30;5.45;;;;;;;14.24;77.29;100335.88;10342025;28;96864;-84
2022/12/06 15:58:44;;;;;;;10.50;7.40;;;;;;;14.17;77.63;100333.63;10343555;28;96825;-84
2022/12/06 16:03:53;;;;;;;13.15;8.35;;;;;;;14.19;77.87;100339.72;10342766;28;96771;-84
2022/12/06 16:08:59;;;;;;;11.00;7.35;;;;;;;14.15;77.85;100338.16;10342914;28;96636;-84
2022/12/06 16:14:05;;;;;;;16.58;8.60;;;;;;;14.07;78.32;100330.63;10342565;28;96798;-84
2022/12/06 16:19:18;;;;;;;11.60;8.83;;;;;;;13.95;78.51;100331.22;10342445;28;96855;-84
2022/12/06 16:24:23;;;;;;;11.18;8.93;;;;;;;13.98;78.34;100331.06;10342040;28;96700;-84
2022/12/06 16:29:26;;;;;;;16.20;9.60;;;;;;;14.01;78.33;100336.19;10342862;28;96722;-84
2022/12/06 16:34:34;;;;;;;12.47;9.03;;;;;;;14.05;78.36;100351.03;10342174;28;96817;-84
2022/12/06 16:39:38;;;;;;;13.10;10.63;;;;;;;14.06;78.53;100351.84;10341591;28;96582;-84
2022/12/06 16:44:51;;;;;;;17.13;11.00;;;;;;;14.02;78.62;100350.31;10340553;28;96884;-84
2022/12/06 16:49:55;;;;;;;11.57;9.27;;;;;;;14.01;78.95;100356.50;10363259;28;97494;-84
2022/12/06 16:55:00;;;;;;;11.80;9.43;;;;;;;14.03;79.00;100362.59;10382558;28;96756;-84
2022/12/06 17:00:10;;;;;;;14.23;11.38;;;;;;;13.98;79.24;100361.97;10382213;28;96705;-84
2022/12/06 17:05:21;;;;;;;21.35;15.40;;;;;;;13.93;79.40;100356.06;10380869;28;96774;-84
2022/12/06 17:10:28;;;;;;;19.70;14.70;;;;;;;13.83;79.67;100363.59;10381584;28;96943;-84
2022/12/06 17:15:32;;;;;;;19.70;14.80;;;;;;;13.80;79.95;100363.75;10381241;28;96710;-84
2022/12/06 17:20:40;;;;;;;19.07;14.30;;;;;;;13.82;80.13;100358.38;10381290;28;96870;-84
2022/12/06 17:25:44;;;;;;;20.17;14.40;;;;;;;13.85;79.83;100355.59;10380472;28;97117;-84
2022/12/06 17:30:48;;;;;;;19.40;14.20;;;;;;;13.71;80.45;100360.72;10380413;28;96746;-84
2022/12/06 17:36:05;;;;;;;18.50;14.10;;;;;;;13.60;81.26;100359.50;10380608;28;96650;-84
2022/12/06 17:46:49;;;;;;;21.60;16.15;;;;;;;13.49;81.28;100345.94;10339196;28;96676;-84
2022/12/06 17:51:56;;;;;;;21.33;15.85;;;;;;;13.48;81.97;100357.44;10338335;28;96807;-84
2022/12/06 17:57:00;;;;;;;23.15;16.02;;;;;;;13.51;80.72;100357.31;10338713;28;96623;-84
2022/12/06 18:02:06;;;;;;;26.08;17.08;;;;;;;13.52;80.81;100355.50;10337874;28;97416;-84
2022/12/06 18:07:24;;;;;;;20.23;14.25;;;;;;;13.33;82.14;100368.78;10338303;28;96587;-84
2022/12/06 18:12:31;;;;;;;23.67;17.20;;;;;;;13.30;82.09;100360.13;10338979;28;96582;-84
2022/12/06 18:17:37;;;;;;;19.77;16.58;;;;;;;13.35;81.57;100358.13;10337988;28;96568;-84
2022/12/06 18:22:45;;;;;;;18.38;13.32;;;;;;;13.34;81.72;100351.13;10337472;28;96883;-84
2022/12/06 18:27:50;;;;;;;22.23;16.88;;;;;;;13.36;81.56;100352.75;10337187;28;96537;-84
2022/12/06 18:32:54;;;;;;;19.07;15.33;;;;;;;13.34;81.52;100354.66;10337865;28;97146;-84
2022/12/06 18:38:01;;;;;;;23.30;17.77;;;;;;;13.25;81.39;100352.44;10337237;28;96673;-84
2022/12/06 18:43:04;;;;;;;20.08;15.55;;;;;;;13.26;81.46;100355.94;10338044;28;96733;-84
2022/12/06 18:48:10;;;;;;;19.45;15.50;;;;;;;13.19;81.46;100365.94;10337594;28;96594;-84
2022/12/06 18:53:19;;;;;;;27.63;18.38;;;;;;;13.10;82.05;100369.03;10337176;28;96708;-84
2022/12/06 18:58:22;;;;;;;29.38;20.88;;;;;;;13.02;82.49;100360.63;10337012;28;96668;-84
2022/12/06 19:03:26;;;;;;;24.58;18.83;;;;;;;13.03;82.11;100369.41;10337737;28;96759;-84
2022/12/06 19:08:32;;;;;;;26.38;19.90;;;;;;;12.99;82.31;100363.41;10337125;28;96671;-84
2022/12/06 19:13:36;;;;;;;29.38;22.63;;;;;;;12.91;82.31;100370.84;10340028;28;96808;-84
2022/12/06 19:18:41;;;;;;;27.85;19.85;;;;;;;12.90;82.61;100365.63;10342917;28;96757;-84
2022/12/06 19:23:52;;;;;;;23.10;16.73;;;;;;;12.81;82.88;100372.19;10344201;28;96611;-83
2022/12/06 19:29:00;;;;;;;30.00;20.95;;;;;;;12.70;83.49;100366.56;10343264;28;96746;-83
2022/12/06 19:34:05;;;;;;;27.80;20.15;;;;;;;12.62;83.57;100370.47;10343011;28;96843;-84
2022/12/06 19:39:14;;;;;;;30.45;21.90;;;;;;;12.52;84.66;100375.28;10343328;28;96776;-84
2022/12/06 19:44:18;;;;;;;32.47;23.38;;;;;;;12.51;84.39;100373.59;10342955;28;96557;-84
2022/12/06 19:49:24;;;;;;;33.33;24.83;;;;;;;12.50;84.28;100379.78;10343141;28;96700;-83
2022/12/06 19:54:34;;;;;;;29.60;23.33;;;;;;;12.53;84.34;100377.03;10342990;28;96845;-84
2022/12/06 19:59:40;;;;;;;33.60;24.20;;;;;;;12.54;84.55;100378.72;10342520;28;96894;-84
2022/12/06 20:04:45;;;;;;;32.40;25.25;;;;;;;12.52;85.16;100373.50;10342579;28;96717;-84
2022/12/06 20:09:53;;;;;;;40.92;28.08;;;;;;;12.52;84.88;100380.56;10341465;28;96680;-84
2022/12/06 20:14:59;;;;;;;38.13;27.73;;;;;;;12.48;85.72;100381.63;10342459;28;96665;-84
2022/12/06 20:20:04;;;;;;;38.17;27.27;;;;;;;12.46;85.49;100383.50;10341700;28;96933;-84
2022/12/06 20:25:13;;;;;;;29.87;22.50;;;;;;;12.46;85.97;100386.97;10363457;28;96716;-84
2022/12/06 20:30:18;;;;;;;28.98;22.65;;;;;;;12.49;85.50;100381.56;10364384;28;96589;-83
2022/12/06 20:35:23;;;;;;;32.67;23.47;;;;;;;12.54;85.86;100390.16;10341293;28;96607;-84
2022/12/06 20:40:31;;;;;;;32.53;23.27;;;;;;;12.52;85.45;100388.47;10340800;28;97114;-84
2022/12/06 20:45:35;;;;;;;28.23;21.98;;;;;;;12.57;85.14;100395.28;10342167;28;97536;-84
2022/12/06 20:50:40;;;;;;;26.80;21.50;;;;;;;12.61;85.35;100393.34;10340660;28;96579;-84
2022/12/06 20:55:46;;;;;;;;;;;;;;;12.57;85.74;100397.91;10341169;28;96691;-84
2022/12/06 21:00:50;;;;;;;30.10;23.52;;;;;;;12.47;85.01;100403.69;10340555;28;96696;-84
2022/12/06 21:06:01;;;;;;;32.65;24.17;;;;;;;12.36;86.48;100408.56;10340929;28;96771;-84
2022/12/06 21:11:08;;;;;;;30.02;22.42;;;;;;;12.44;85.79;100403.81;10340166;28;96678;-84
2022/12/06 21:16:30;;;;;;;25.20;18.73;;;;;;;12.58;84.93;100404.06;10339622;28;96673;-84
2022/12/06 21:21:36;;;;;;;29.50;22.95;;;;;;;12.40;86.15;100413.66;10340189;28;97095;-84
2022/12/06 21:26:43;;;;;;;27.30;22.17;;;;;;;12.35;86.20;100422.69;10352206;28;96986;-84
2022/12/06 21:31:48;;;;;;;24.73;19.55;;;;;;;12.47;85.45;100420.38;10380132;28;96741;-84
2022/12/06 21:36:52;;;;;;;21.63;15.93;;;;;;;12.55;85.02;100407.69;10373257;28;97172;-84
2022/12/06 21:41:59;;;;;;;24.60;19.17;;;;;;;12.44;85.53;100422.28;10339099;28;96674;-84
2022/12/06 21:47:02;;;;;;;25.92;19.55;;;;;;;12.36;86.00;100416.47;10338740;28;96823;-84
2022/12/06 21:52:06;;;;;;;25.65;19.50;;;;;;;12.32;85.70;100420.19;10338131;28;96730;-84
2022/12/06 21:57:15;;;;;;;24.23;17.58;;;;;;;12.40;85.24;100416.28;10338998;28;96849;-84
2022/12/06 22:02:21;;;;;;;22.90;17.75;;;;;;;12.28;86.05;100410.69;10338856;28;96879;-84
2022/12/06 22:07:27;;;;;;;23.98;18.08;;;;;;;12.24;86.39;100403.81;10338271;28;96683;-84
2022/12/06 22:12:32;;;;;;;24.50;18.37;;;;;;;12.22;85.99;100403.91;10338965;28;96757;-84
2022/12/06 22:17:40;;;;;;;23.05;18.75;;;;;;;12.30;85.65;100407.06;10338120;28;96694;-84
2022/12/06 22:22:44;;;;;;;23.42;17.83;;;;;;;12.27;86.23;100407.19;10337843;28;96766;-84
2022/12/06 22:27:52;;;;;;;26.48;19.02;;;;;;;12.15;86.88;100406.88;10338851;28;96709;-84
2022/12/06 22:32:57;;;;;;;23.98;17.95;;;;;;;12.15;85.87;100396.34;10337439;28;96706;-84
2022/12/06 22:38:02;;;;;;;24.70;18.13;;;;;;;12.12;86.69;100394.69;10337543;28;97041;-84
2022/12/06 22:43:09;;;;;;;26.27;19.02;;;;;;;12.10;86.10;100385.97;10337144;28;97268;-84
2022/12/06 22:48:15;;;;;;;21.85;16.40;;;;;;;12.24;85.76;100380.09;10341937;28;96763;-84
2022/12/06 22:53:19;;;;;;;23.80;17.27;;;;;;;12.31;85.09;100395.59;10344398;28;96736;-84
2022/12/06 22:58:25;;;;;;;23.17;18.33;;;;;;;12.30;85.27;100385.09;10344410;28;96885;-84
2022/12/06 23:03:33;;;;;;;25.75;17.80;;;;;;;12.13;86.30;100375.28;10344802;28;96643;-84
2022/12/06 23:08:38;;;;;;;24.42;17.73;;;;;;;12.09;85.82;100365.81;10343879;28;96661;-84
2022/12/06 23:13:46;;;;;;;26.27;18.63;;;;;;;12.03;85.73;100363.41;10343586;28;96762;-84
2022/12/06 23:18:50;;;;;;;27.38;19.20;;;;;;;11.97;85.57;100376.03;10344631;28;96767;-84
2022/12/06 23:23:57;;;;;;;25.42;18.35;;;;;;;11.94;85.94;100366.47;10352826;28;96954;-84
2022/12/06 23:29:06;;;;;;;22.10;16.38;;;;;;;11.94;85.51;100365.63;10351909;28;96860;-83
2022/12/06 23:34:14;;;;;;;22.90;17.27;;;;;;;12.00;85.73;100347.75;10342823;28;96716;-84
2022/12/06 23:39:18;;;;;;;24.13;18.25;;;;;;;11.88;86.08;100350.91;10343281;28;96707;-84
2022/12/06 23:44:25;;;;;;;24.88;18.27;;;;;;;11.78;86.16;100351.38;10342684;28;97121;-84
2022/12/06 23:49:30;;;;;;;24.52;19.00;;;;;;;11.66;86.14;100346.63;10342943;28;96865;-84
2022/12/06 23:54:34;;;;;;;31.40;21.83;;;;;;;11.63;86.57;100347.59;10342969;28;96703;-84
2022/12/06 23:59:47;;;;;;;24.15;17.63;;;;;;;11.58;86.26;100338.19;10341768;28;96615;-84
